Time;durP1;ratioP1;P1;durP2;ratioP2;P2;SDS_P1;SDS_P2;PMS_P1;PMS_P2;Temp;Humidity;BMP_temperature;BMP_pressure;BME280_temperature;BME280_humidity;BME280_pressure;Samples;Min_cycle;Max_cycle;Signal;HPM_P1;HPM_P2
2023/09/06 00:01:25;;;;;;;;;;;;;;;26.24;24.64;101589.88;5112651;28;20022;-68
2023/09/06 00:03:51;;;;;;;;;;;;;;;26.25;24.95;101580.53;5094912;28;19967;-68
2023/09/06 00:06:16;;;;;;;;;;;;;;;26.23;24.42;101583.56;5094924;28;20322;-68
2023/09/06 00:08:42;;;;;;;;;;;;;;;26.14;24.79;101589.88;5094862;28;19919;-68
2023/09/06 00:11:07;;;;;;;;;;;;;;;26.09;24.67;101590.69;5095005;28;19912;-68
2023/09/06 00:13:33;;;;;;;;;;;;;;;25.99;24.86;101596.97;5094777;28;20381;-68
2023/09/06 00:16:02;;;;;;;;;;;;;;;26.01;24.77;101602.22;5077368;28;19956;-68
2023/09/06 00:18:27;;;;;;;;;;;;;;;25.99;24.91;101604.41;5074681;28;20321;-68
2023/09/06 00:20:53;;;;;;;;;;;;;;;25.93;25.05;101614.59;5074316;28;19923;-67
2023/09/06 00:23:20;;;;;;;;;;;;;;;25.91;25.17;101611.25;5090071;28;19913;-67
2023/09/06 00:25:45;;;;;;;;;;;;;;;25.88;24.83;101607.09;5074149;28;19920;-68
2023/09/06 00:28:10;;;;;;;;;;;;;;;25.82;25.12;101618.34;5074218;28;19913;-68
2023/09/06 00:30:36;;;;;;;;;;;;;;;25.76;25.13;101624.91;5074197;28;20003;-68
2023/09/06 00:33:05;;;;;;;;;;;;;;;25.77;25.07;101629.34;5074031;28;19912;-68
2023/09/06 00:35:31;;;;;;;;;;;;;;;25.74;25.42;101618.84;5074137;28;19913;-68
2023/09/06 00:37:56;;;;;;;;;;;;;;;25.70;24.88;101615.81;5074118;28;19917;-68
2023/09/06 00:40:22;;;;;;;;;;;;;;;25.67;24.84;101622.69;5073980;28;19966;-68
2023/09/06 00:42:59;;;;;;;;;;;;;;;25.60;25.45;101638.59;5092720;28;20024;-68
2023/09/06 00:45:29;;;;;;;;;;;;;;;25.56;25.18;101647.66;5094863;28;19916;-68
2023/09/06 00:47:55;;;;;;;;;;;;;;;25.54;25.59;101642.41;5095165;28;19912;-68
2023/09/06 00:50:20;;;;;;;;;;;;;;;25.54;25.30;101642.41;5095590;28;19938;-68
2023/09/06 00:52:46;;;;;;;;;;;;;;;25.55;25.42;101646.00;5095015;28;19968;-68
2023/09/06 00:55:12;;;;;;;;;;;;;;;25.48;25.38;101662.72;5098178;28;19998;-68
2023/09/06 00:57:38;;;;;;;;;;;;;;;25.41;25.30;101673.97;5114278;28;20420;-68
2023/09/06 01:00:14;;;;;;;;;;;;;;;25.39;25.17;101676.16;5097396;28;19920;-68
2023/09/06 01:02:39;;;;;;;;;;;;;;;25.29;25.52;101684.31;5073614;28;20563;-68
2023/09/06 01:05:04;;;;;;;;;;;;;;;25.26;25.75;101682.94;5073397;28;19945;-67
2023/09/06 01:07:34;;;;;;;;;;;;;;;25.29;25.08;101687.06;5073879;28;20268;-68
2023/09/06 01:10:00;;;;;;;;;;;;;;;25.24;25.28;101693.38;5073935;28;19912;-68
2023/09/06 01:12:25;;;;;;;;;;;;;;;25.23;25.48;101699.94;5092673;28;20445;-68
2023/09/06 01:14:51;;;;;;;;;;;;;;;25.23;25.56;101701.84;5093924;28;19990;-68
2023/09/06 01:17:16;;;;;;;;;;;;;;;25.20;25.34;101702.34;5093708;28;19912;-68
2023/09/06 01:19:44;;;;;;;;;;;;;;;25.18;25.67;101707.28;5093594;28;19919;-68
2023/09/06 01:22:22;;;;;;;;;;;;;;;25.12;25.56;101707.22;5093910;28;20436;-68
2023/09/06 01:24:49;;;;;;;;;;;;;;;25.10;25.68;101716.84;5093598;28;19912;-68
2023/09/06 01:27:14;;;;;;;;;;;;;;;25.07;25.28;101709.09;5093204;28;19912;-68
2023/09/06 01:29:39;;;;;;;;;;;;;;;25.05;25.70;101711.28;5093245;28;20418;-68
2023/09/06 01:32:05;;;;;;;;;;;;;;;25.00;25.78;101719.47;5093243;28;20006;-68
2023/09/06 01:34:30;;;;;;;;;;;;;;;24.65;25.63;101668.59;5093358;28;19912;-67
2023/09/06 01:36:56;;;;;;;;;;;;;;;24.99;25.43;101723.34;5093293;28;19922;-67
2023/09/06 01:39:21;;;;;;;;;;;;;;;24.94;25.56;101732.34;5093311;28;20387;-67
2023/09/06 01:41:46;;;;;;;;;;;;;;;24.88;25.65;101738.88;5092878;28;19922;-67
2023/09/06 01:44:11;;;;;;;;;;;;;;;24.86;25.65;101746.56;5093153;28;19912;-68
2023/09/06 01:46:37;;;;;;;;;;;;;;;24.82;25.18;101745.41;5093261;28;19926;-68
2023/09/06 01:49:03;;;;;;;;;;;;;;;24.81;25.51;101738.25;5091789;28;19912;-67
2023/09/06 01:51:28;;;;;;;;;;;;;;;24.73;25.33;101739.53;5093418;28;19947;-68
2023/09/06 01:53:53;;;;;;;;;;;;;;;24.70;25.54;101746.41;5092161;28;19924;-68
2023/09/06 01:56:19;;;;;;;;;;;;;;;24.67;25.49;101751.56;5107139;28;19919;-68
2023/09/06 01:58:46;;;;;;;;;;;;;;;24.65;25.42;101749.06;5113335;28;19918;-68
2023/09/06 02:01:11;;;;;;;;;;;;;;;24.63;25.72;101758.69;5111497;28;19915;-68
2023/09/06 02:03:36;;;;;;;;;;;;;;;24.56;25.67;101750.63;5092891;28;20440;-68
2023/09/06 02:06:03;;;;;;;;;;;;;;;24.47;25.85;101758.44;5092675;28;20388;-68
2023/09/06 02:08:28;;;;;;;;;;;;;;;24.44;25.99;101756.22;5092712;28;19912;-68
2023/09/06 02:10:53;;;;;;;;;;;;;;;24.41;26.00;101764.94;5092844;28;19935;-68
2023/09/06 02:13:19;;;;;;;;;;;;;;;24.40;25.98;101760.53;5093127;28;19950;-68
2023/09/06 02:15:44;;;;;;;;;;;;;;;24.37;26.04;101765.69;5092907;28;19912;-68
2023/09/06 02:18:15;;;;;;;;;;;;;;;24.36;26.11;101767.63;5092764;28;20337;-68
2023/09/06 02:20:40;;;;;;;;;;;;;;;24.29;25.63;101784.31;5092840;28;20011;-68
2023/09/06 02:23:05;;;;;;;;;;;;;;;24.29;25.57;101789.78;5074458;28;20002;-68
2023/09/06 02:25:33;;;;;;;;;;;;;;;24.24;26.02;101788.91;5092696;28;20007;-67
2023/09/06 02:28:03;;;;;;;;;;;;;;;24.18;26.00;101800.88;5092672;28;20427;-68
2023/09/06 02:30:28;;;;;;;;;;;;;;;24.14;25.96;101787.66;5091509;28;20304;-68
2023/09/06 02:32:54;;;;;;;;;;;;;;;24.09;26.05;101800.44;5092610;28;19912;-68
2023/09/06 02:35:19;;;;;;;;;;;;;;;24.08;25.89;101802.38;5091407;28;19950;-68
2023/09/06 02:37:45;;;;;;;;;;;;;;;24.06;26.00;101798.22;5092386;28;19964;-69
2023/09/06 02:40:12;;;;;;;;;;;;;;;24.00;25.91;101810.22;5077637;28;20053;-68
2023/09/06 02:42:38;;;;;;;;;;;;;;;23.94;26.17;101814.78;5090912;28;20276;-68
2023/09/06 02:45:05;;;;;;;;;;;;;;;23.97;26.15;101817.03;5092467;28;19912;-67
2023/09/06 02:47:31;;;;;;;;;;;;;;;23.91;26.19;101823.53;5092405;28;19995;-67
2023/09/06 02:49:56;;;;;;;;;;;;;;;23.89;26.07;101814.72;5092512;28;19999;-67
2023/09/06 02:52:30;;;;;;;;;;;;;;;23.85;26.00;101824.53;5091127;28;19912;-68
2023/09/06 02:54:57;;;;;;;;;;;;;;;23.83;25.92;101829.41;5095719;28;19919;-68
2023/09/06 02:57:25;;;;;;;;;;;;;;;23.81;25.98;101831.56;5116748;28;19919;-68
2023/09/06 02:59:51;;;;;;;;;;;;;;;23.75;25.70;101834.22;5116807;28;20322;-67
2023/09/06 03:02:18;;;;;;;;;;;;;;;23.75;26.00;101828.75;5105520;28;19912;-68
2023/09/06 03:04:43;;;;;;;;;;;;;;;23.74;25.90;101826.25;5096021;28;20074;-68
2023/09/06 03:07:10;;;;;;;;;;;;;;;23.71;25.87;101834.97;5096163;28;19919;-69
2023/09/06 03:09:38;;;;;;;;;;;;;;;23.70;25.62;101828.66;5096041;28;19916;-68
2023/09/06 03:12:11;;;;;;;;;;;;;;;23.65;25.84;101827.72;5096335;28;19912;-68
2023/09/06 03:14:43;;;;;;;;;;;;;;;23.63;26.12;101832.63;5096086;28;20272;-69
2023/09/06 03:17:09;;;;;;;;;;;;;;;23.63;25.91;101832.63;5096031;28;19927;-69
2023/09/06 03:19:40;;;;;;;;;;;;;;;23.55;25.81;101833.84;5077607;28;19916;-69
2023/09/06 03:22:09;;;;;;;;;;;;;;;23.46;26.23;101829.84;5095595;28;19970;-69
2023/09/06 03:24:43;;;;;;;;;;;;;;;23.49;26.06;101837.59;5101066;28;19912;-69
2023/09/06 03:27:09;;;;;;;;;;;;;;;23.49;26.06;101845.81;5105300;28;19950;-69
2023/09/06 03:29:37;;;;;;;;;;;;;;;23.45;26.17;101842.72;5097696;28;20345;-69
2023/09/06 03:32:04;;;;;;;;;;;;;;;23.41;26.19;101847.03;5098079;28;20583;-70
2023/09/06 03:34:30;;;;;;;;;;;;;;;23.39;26.13;101852.78;5095839;28;19928;-67
2023/09/06 03:36:55;;;;;;;;;;;;;;;23.36;26.11;101863.41;5095645;28;20010;-68
2023/09/06 03:39:21;;;;;;;;;;;;;;;23.31;26.26;101866.03;5095543;28;19919;-67
2023/09/06 03:41:46;;;;;;;;;;;;;;;23.28;26.10;101867.38;5095446;28;19931;-68
2023/09/06 03:44:12;;;;;;;;;;;;;;;23.28;26.18;101872.84;5095639;28;19912;-68
2023/09/06 03:46:38;;;;;;;;;;;;;;;23.24;26.43;101877.16;5094183;28;20002;-68
2023/09/06 03:49:08;;;;;;;;;;;;;;;23.29;26.28;101892.84;5095360;28;20291;-68
2023/09/06 03:51:33;;;;;;;;;;;;;;;23.27;26.26;101878.56;5095672;28;19912;-68
2023/09/06 03:54:00;;;;;;;;;;;;;;;23.22;26.41;101884.78;5094587;28;19990;-68
2023/09/06 03:56:25;;;;;;;;;;;;;;;23.18;26.52;101898.16;5110221;28;19912;-68
2023/09/06 03:58:53;;;;;;;;;;;;;;;23.15;26.51;101897.81;5115599;28;20331;-68
2023/09/06 04:01:19;;;;;;;;;;;;;;;23.12;26.79;101907.34;5093815;28;20371;-68
2023/09/06 04:03:47;;;;;;;;;;;;;;;23.11;26.34;101905.69;5074756;28;19924;-68
2023/09/06 04:06:13;;;;;;;;;;;;;;;23.07;26.57;101920.09;5074290;28;19916;-68
2023/09/06 04:08:39;;;;;;;;;;;;;;;23.05;26.47;101911.28;5074725;28;19919;-68
2023/09/06 04:11:05;;;;;;;;;;;;;;;23.03;26.71;101916.13;5074709;28;19913;-68
2023/09/06 04:13:33;;;;;;;;;;;;;;;23.00;26.65;101923.78;5074831;28;19912;-68
2023/09/06 04:15:58;;;;;;;;;;;;;;;22.98;26.88;101928.66;5074809;28;19919;-68
2023/09/06 04:18:23;;;;;;;;;;;;;;;22.93;26.61;101928.53;5074413;28;19912;-68
2023/09/06 04:20:49;;;;;;;;;;;;;;;22.93;26.89;101930.47;5074352;28;19920;-68
2023/09/06 04:23:14;;;;;;;;;;;;;;;22.90;26.47;101929.06;5074336;28;19932;-68
2023/09/06 04:25:44;;;;;;;;;;;;;;;22.86;26.47;101935.22;5074689;28;19920;-68
2023/09/06 04:28:13;;;;;;;;;;;;;;;22.90;26.62;101945.50;5094695;28;19916;-68
2023/09/06 04:30:41;;;;;;;;;;;;;;;22.93;26.89;101955.13;5094331;28;19923;-68
2023/09/06 04:33:12;;;;;;;;;;;;;;;22.89;26.49;101949.28;5094473;28;19916;-68
2023/09/06 04:35:38;;;;;;;;;;;;;;;22.85;26.71;101950.84;5094553;28;19919;-68
2023/09/06 04:38:04;;;;;;;;;;;;;;;22.79;26.60;101952.63;5094746;28;20432;-68
2023/09/06 04:40:29;;;;;;;;;;;;;;;22.78;26.71;101959.19;5094649;28;20003;-68
2023/09/06 04:42:55;;;;;;;;;;;;;;;22.74;26.85;101957.16;5094172;28;19912;-67
2023/09/06 04:45:20;;;;;;;;;;;;;;;22.79;26.97;101960.03;5094377;28;19943;-68
2023/09/06 04:47:45;;;;;;;;;;;;;;;22.77;26.87;101960.25;5094829;28;20020;-68
2023/09/06 04:50:11;;;;;;;;;;;;;;;22.75;27.02;101961.56;5094896;28;19943;-68
2023/09/06 04:52:42;;;;;;;;;;;;;;;22.79;26.99;101965.50;5095345;28;19990;-68
2023/09/06 04:55:08;;;;;;;;;;;;;;;22.75;26.72;101956.94;5098050;28;20321;-68
2023/09/06 04:57:36;;;;;;;;;;;;;;;22.72;26.65;101970.28;5095199;28;19912;-68
2023/09/06 05:00:06;;;;;;;;;;;;;;;22.72;26.51;101979.31;5094935;28;19922;-68
2023/09/06 05:02:32;;;;;;;;;;;;;;;22.76;26.71;101982.41;5082763;28;19912;-68
2023/09/06 05:04:59;;;;;;;;;;;;;;;22.73;26.87;101975.50;5073819;28;19920;-68
2023/09/06 05:07:24;;;;;;;;;;;;;;;22.72;26.50;101983.97;5087427;28;19928;-69
2023/09/06 05:09:53;;;;;;;;;;;;;;;22.71;26.78;101976.81;5093924;28;19912;-68
2023/09/06 05:12:21;;;;;;;;;;;;;;;22.70;26.89;101972.41;5094150;28;20265;-67
2023/09/06 05:14:48;;;;;;;;;;;;;;;22.73;26.76;101980.13;5093140;28;21249;-67
2023/09/06 05:17:14;;;;;;;;;;;;;;;22.78;26.55;101969.31;5092631;28;20018;-68
2023/09/06 05:19:39;;;;;;;;;;;;;;;22.72;26.58;101973.84;5093305;28;19923;-68
2023/09/06 05:22:04;;;;;;;;;;;;;;;22.68;26.84;101980.00;5093572;28;19965;-68
2023/09/06 05:24:30;;;;;;;;;;;;;;;22.68;26.81;101982.75;5093422;28;19962;-68
2023/09/06 05:26:55;;;;;;;;;;;;;;;22.67;26.59;101987.41;5093324;28;20333;-67
2023/09/06 05:29:20;;;;;;;;;;;;;;;22.71;26.62;101980.38;5093115;28;19912;-68
2023/09/06 05:31:46;;;;;;;;;;;;;;;22.70;26.71;101980.63;5093100;28;19922;-68
2023/09/06 05:34:11;;;;;;;;;;;;;;;22.72;26.62;101982.03;5074854;28;19912;-68
2023/09/06 05:36:36;;;;;;;;;;;;;;;22.74;26.57;101984.56;5092967;28;20002;-69
2023/09/06 05:39:02;;;;;;;;;;;;;;;22.78;26.88;101992.03;5092879;28;20375;-69
2023/09/06 05:41:28;;;;;;;;;;;;;;;22.77;26.67;101987.66;5093032;28;19969;-69
2023/09/06 05:43:54;;;;;;;;;;;;;;;22.77;26.70;101987.66;5092895;28;19912;-68
2023/09/06 05:46:20;;;;;;;;;;;;;;;22.78;26.83;101996.69;5093229;28;19919;-68
2023/09/06 05:48:45;;;;;;;;;;;;;;;22.80;26.83;102002.75;5092768;28;19916;-68
2023/09/06 05:51:11;;;;;;;;;;;;;;;22.81;27.00;102007.19;5092636;28;19919;-68
2023/09/06 05:53:36;;;;;;;;;;;;;;;22.81;26.60;101996.22;5092649;28;19916;-68
2023/09/06 05:56:01;;;;;;;;;;;;;;;22.79;26.72;101990.16;5104125;28;19931;-69
2023/09/06 05:58:27;;;;;;;;;;;;;;;22.83;27.08;102002.31;5113617;28;20440;-68
2023/09/06 06:00:56;;;;;;;;;;;;;;;22.87;26.73;101998.00;5113181;28;20284;-69
2023/09/06 06:03:23;;;;;;;;;;;;;;;22.86;26.98;101996.31;5092532;28;19931;-68
2023/09/06 06:05:49;;;;;;;;;;;;;;;22.87;26.75;102005.41;5093062;28;19998;-68
2023/09/06 06:08:14;;;;;;;;;;;;;;;22.93;26.85;101998.97;5092911;28;20353;-68
2023/09/06 06:10:40;;;;;;;;;;;;;;;22.91;26.69;102007.41;5092728;28;19919;-69
2023/09/06 06:13:07;;;;;;;;;;;;;;;22.89;26.64;102004.06;5092849;28;19919;-69
2023/09/06 06:15:32;;;;;;;;;;;;;;;22.92;26.78;102005.50;5092917;28;20283;-69
2023/09/06 06:17:57;;;;;;;;;;;;;;;22.91;26.57;102007.41;5092758;28;19912;-69
2023/09/06 06:20:23;;;;;;;;;;;;;;;22.96;26.53;102013.00;5092318;28;19970;-69
2023/09/06 06:22:48;;;;;;;;;;;;;;;22.99;26.30;102011.69;5092487;28;19923;-69
2023/09/06 06:25:13;;;;;;;;;;;;;;;23.00;26.32;102011.47;5092646;28;20065;-69
2023/09/06 06:27:39;;;;;;;;;;;;;;;23.05;26.14;102012.66;5092688;28;19916;-69
2023/09/06 06:30:07;;;;;;;;;;;;;;;23.10;26.35;102015.53;5096441;28;19920;-69
2023/09/06 06:32:33;;;;;;;;;;;;;;;23.08;25.89;102021.25;5096935;28;19912;-69
2023/09/06 06:35:01;;;;;;;;;;;;;;;23.16;25.95;102025.53;5096890;28;19912;-69
2023/09/06 06:37:27;;;;;;;;;;;;;;;23.19;25.85;102025.88;5095762;28;20260;-69
2023/09/06 06:39:52;;;;;;;;;;;;;;;23.24;25.89;102027.91;5080613;28;19917;-70
2023/09/06 06:42:18;;;;;;;;;;;;;;;23.27;25.79;102029.34;5077644;28;20356;-70
2023/09/06 06:44:46;;;;;;;;;;;;;;;23.31;25.83;102028.63;5078176;28;20411;-70
2023/09/06 06:47:12;;;;;;;;;;;;;;;23.35;25.69;102027.06;5088311;28;20441;-70
2023/09/06 06:49:37;;;;;;;;;;;;;;;23.37;25.64;102038.63;5081693;28;19913;-69
2023/09/06 06:52:02;;;;;;;;;;;;;;;23.38;25.38;102037.56;5076604;28;19997;-69
2023/09/06 06:54:28;;;;;;;;;;;;;;;23.43;25.54;102036.81;5076055;28;19912;-68
2023/09/06 06:56:53;;;;;;;;;;;;;;;23.44;25.02;102030.28;5114151;28;20570;-68
2023/09/06 06:59:18;;;;;;;;;;;;;;;23.46;25.18;102035.50;5116950;28;19962;-68
2023/09/06 07:01:43;;;;;;;;;;;;;;;23.54;24.48;102035.13;5111376;28;19935;-68
2023/09/06 07:04:09;;;;;;;;;;;;;;;23.58;24.54;102034.41;5096363;28;20343;-68
2023/09/06 07:06:35;;;;;;;;;;;;;;;23.54;24.16;102041.44;5095691;28;19961;-67
2023/09/06 07:09:03;;;;;;;;;;;;;;;23.49;24.10;102035.03;5096201;28;19912;-67
2023/09/06 07:11:29;;;;;;;;;;;;;;;23.57;24.63;102038.22;5095172;28;20372;-67
2023/09/06 07:13:54;;;;;;;;;;;;;;;23.63;24.24;102041.09;5096032;28;19919;-67
2023/09/06 07:16:20;;;;;;;;;;;;;;;23.66;24.44;102037.84;5095188;28;19912;-67
2023/09/06 07:18:45;;;;;;;;;;;;;;;23.73;24.00;102049.50;5095920;28;19916;-67
2023/09/06 07:21:11;;;;;;;;;;;;;;;23.72;24.34;102040.44;5096183;28;19923;-67
2023/09/06 07:23:36;;;;;;;;;;;;;;;23.89;24.47;102042.47;5095977;28;19938;-67
2023/09/06 07:26:02;;;;;;;;;;;;;;;23.90;24.45;102039.47;5096174;28;20412;-67
2023/09/06 07:28:35;;;;;;;;;;;;;;;23.92;24.07;102052.94;5095838;28;19919;-67
2023/09/06 07:31:00;;;;;;;;;;;;;;;23.95;24.08;102039.56;5095620;28;19919;-67
2023/09/06 07:33:26;;;;;;;;;;;;;;;23.87;23.77;102045.44;5095628;28;20369;-67
2023/09/06 07:35:51;;;;;;;;;;;;;;;24.01;24.05;102045.16;5095976;28;20439;-67
2023/09/06 07:38:16;;;;;;;;;;;;;;;24.03;24.19;102035.56;5095658;28;19912;-68
2023/09/06 07:40:41;;;;;;;;;;;;;;;24.12;24.10;102044.25;5094544;28;19916;-67
2023/09/06 07:43:07;;;;;;;;;;;;;;;24.16;24.14;102034.44;5095517;28;20004;-67
2023/09/06 07:45:32;;;;;;;;;;;;;;;24.20;24.08;102043.88;5095406;28;19912;-67
2023/09/06 07:47:57;;;;;;;;;;;;;;;24.21;24.04;102042.78;5095055;28;19916;-67
2023/09/06 07:50:23;;;;;;;;;;;;;;;24.28;24.24;102040.72;5095690;28;19937;-67
2023/09/06 07:52:48;;;;;;;;;;;;;;;24.28;24.35;102040.72;5095493;28;20318;-67
2023/09/06 07:55:14;;;;;;;;;;;;;;;24.30;23.95;102041.31;5099275;28;20652;-67
2023/09/06 07:57:39;;;;;;;;;;;;;;;24.38;24.10;102037.31;5115683;28;19920;-67
2023/09/06 08:00:05;;;;;;;;;;;;;;;24.58;24.01;102041.53;5115621;28;19916;-67
2023/09/06 08:02:31;;;;;;;;;;;;;;;24.84;24.03;102037.28;5104006;28;19913;-67
2023/09/06 08:04:57;;;;;;;;;;;;;;;24.95;23.74;102036.34;5095193;28;19924;-67
2023/09/06 08:07:22;;;;;;;;;;;;;;;25.20;23.42;102038.63;5095320;28;19912;-67
2023/09/06 08:09:49;;;;;;;;;;;;;;;25.38;23.74;102034.78;5093741;28;19943;-67
2023/09/06 08:12:14;;;;;;;;;;;;;;;25.51;23.17;102050.06;5094887;28;19919;-67
2023/09/06 08:14:41;;;;;;;;;;;;;;;25.77;23.44;102034.69;5094770;28;20280;-67
2023/09/06 08:17:07;;;;;;;;;;;;;;;25.93;23.02;102033.00;5094852;28;19916;-67
2023/09/06 08:19:33;;;;;;;;;;;;;;;26.11;23.08;102025.47;5094931;28;20323;-67
2023/09/06 08:21:58;;;;;;;;;;;;;;;26.29;23.19;102027.84;5093906;28;19923;-67
2023/09/06 08:24:24;;;;;;;;;;;;;;;26.52;22.66;102029.41;5094816;28;20003;-67
2023/09/06 08:26:49;;;;;;;;;;;;;;;26.67;22.76;102028.75;5094438;28;20361;-67
2023/09/06 08:29:15;;;;;;;;;;;;;;;26.82;22.51;102037.13;5094371;28;20271;-67
2023/09/06 08:31:40;;;;;;;;;;;;;;;26.85;22.61;102041.25;5094621;28;19919;-67
2023/09/06 08:34:06;;;;;;;;;;;;;;;26.89;22.07;102041.56;5094480;28;20260;-67
2023/09/06 08:36:32;;;;;;;;;;;;;;;27.05;22.54;102043.34;5094510;28;20002;-67
2023/09/06 08:38:58;;;;;;;;;;;;;;;27.21;22.66;102045.09;5094414;28;20336;-67
2023/09/06 08:41:25;;;;;;;;;;;;;;;27.34;21.92;102054.00;5094415;28;20289;-67
2023/09/06 08:43:51;;;;;;;;;;;;;;;27.42;21.99;102053.50;5094371;28;19995;-67
2023/09/06 08:46:23;;;;;;;;;;;;;;;27.41;22.27;102058.19;5094246;28;20471;-67
2023/09/06 08:48:49;;;;;;;;;;;;;;;27.57;22.33;102059.09;5094385;28;19912;-67
2023/09/06 08:51:19;;;;;;;;;;;;;;;27.40;22.05;102015.13;5094012;28;20371;-67
2023/09/06 08:53:47;;;;;;;;;;;;;;;27.79;22.17;102061.66;5093176;28;20022;-67
2023/09/06 08:56:15;;;;;;;;;;;;;;;27.84;21.89;102073.81;5107289;28;20015;-67
2023/09/06 08:58:40;;;;;;;;;;;;;;;27.83;22.43;102075.75;5113118;28;20281;-67
2023/09/06 09:01:06;;;;;;;;;;;;;;;27.85;21.91;102070.78;5114055;28;19920;-67
2023/09/06 09:03:32;;;;;;;;;;;;;;;27.84;21.99;102066.38;5093756;28;19920;-67
2023/09/06 09:05:58;;;;;;;;;;;;;;;27.87;21.82;102068.56;5093935;28;20370;-67
2023/09/06 09:08:26;;;;;;;;;;;;;;;27.95;22.14;102073.63;5093842;28;19912;-67
2023/09/06 09:11:06;;;;;;;;;;;;;;;28.11;22.21;102065.38;5093620;28;20422;-67
2023/09/06 09:13:31;;;;;;;;;;;;;;;28.28;22.11;102070.63;5093793;28;19912;-67
2023/09/06 09:15:56;;;;;;;;;;;;;;;28.45;22.20;102071.19;5094020;28;19912;-67
2023/09/06 09:18:22;;;;;;;;;;;;;;;28.60;22.39;102072.34;5093715;28;19912;-67
2023/09/06 09:20:48;;;;;;;;;;;;;;;28.72;22.25;102068.19;5093462;28;19916;-67
2023/09/06 09:23:16;;;;;;;;;;;;;;;28.86;21.74;102065.72;5093723;28;19912;-67
2023/09/06 09:25:51;;;;;;;;;;;;;;;28.94;21.55;102078.16;5093604;28;19924;-67
2023/09/06 09:28:16;;;;;;;;;;;;;;;29.04;21.79;102088.34;5093667;28;19939;-67
2023/09/06 09:30:41;;;;;;;;;;;;;;;29.13;21.65;102082.00;5093430;28;20331;-67
2023/09/06 09:33:07;;;;;;;;;;;;;;;29.24;21.62;102084.75;5093403;28;19912;-67
2023/09/06 09:35:32;;;;;;;;;;;;;;;29.30;21.29;102078.09;5093473;28;19916;-67
2023/09/06 09:37:59;;;;;;;;;;;;;;;29.40;20.72;102083.59;5093105;28;20002;-67
2023/09/06 09:40:34;;;;;;;;;;;;;;;29.45;21.55;102078.03;5093232;28;19973;-67
2023/09/06 09:43:01;;;;;;;;;;;;;;;29.54;21.21;102069.97;5093167;28;19912;-67
2023/09/06 09:45:30;;;;;;;;;;;;;;;29.69;20.88;102080.16;5093182;28;19916;-67
2023/09/06 09:47:56;;;;;;;;;;;;;;;29.83;21.46;102078.47;5092766;28;19915;-67
2023/09/06 09:50:24;;;;;;;;;;;;;;;29.87;20.87;102082.31;5093374;28;19911;-67
2023/09/06 09:52:51;;;;;;;;;;;;;;;29.95;21.46;102077.31;5093359;28;19912;-67
2023/09/06 09:55:16;;;;;;;;;;;;;;;30.20;21.19;102081.84;5097597;28;20293;-67
2023/09/06 09:57:43;;;;;;;;;;;;;;;30.35;20.93;102083.72;5113660;28;19934;-67
2023/09/06 10:00:11;;;;;;;;;;;;;;;30.47;20.63;102075.88;5113259;28;19939;-67
2023/09/06 10:02:36;;;;;;;;;;;;;;;30.58;20.25;102073.84;5100624;28;19920;-67
2023/09/06 10:05:02;;;;;;;;;;;;;;;30.69;20.81;102083.72;5092523;28;20321;-67
2023/09/06 10:07:30;;;;;;;;;;;;;;;30.78;20.35;102081.97;5092366;28;20238;-67
2023/09/06 10:09:56;;;;;;;;;;;;;;;30.87;20.24;102074.69;5092871;28;19921;-67
2023/09/06 10:12:24;;;;;;;;;;;;;;;30.87;20.10;102071.09;5092775;28;19916;-67
2023/09/06 10:14:49;;;;;;;;;;;;;;;30.83;20.08;102084.72;5092907;28;19912;-67
2023/09/06 10:17:19;;;;;;;;;;;;;;;30.82;20.20;102085.00;5092296;28;19923;-67
2023/09/06 10:19:48;;;;;;;;;;;;;;;30.88;20.13;102081.06;5092049;28;19919;-67
2023/09/06 10:22:14;;;;;;;;;;;;;;;30.93;19.83;102089.38;5092603;28;20014;-66
2023/09/06 10:24:43;;;;;;;;;;;;;;;30.96;20.12;102083.25;5091122;28;20346;-66
2023/09/06 10:27:12;;;;;;;;;;;;;;;31.01;20.60;102076.78;5092522;28;19916;-66
2023/09/06 10:29:52;;;;;;;;;;;;;;;31.07;20.27;102078.38;5092667;28;19912;-66
2023/09/06 10:32:18;;;;;;;;;;;;;;;31.08;20.64;102076.47;5092654;28;19994;-67
2023/09/06 10:34:45;;;;;;;;;;;;;;;31.16;20.29;102075.81;5092624;28;19947;-66
2023/09/06 10:37:11;;;;;;;;;;;;;;;31.27;20.15;102089.28;5092553;28;19912;-67
2023/09/06 10:39:46;;;;;;;;;;;;;;;31.22;19.98;102088.50;5092553;28;19930;-67
2023/09/06 10:42:11;;;;;;;;;;;;;;;31.31;19.73;102080.38;5092457;28;19923;-67
2023/09/06 10:44:55;;;;;;;;;;;;;;;31.40;20.21;102078.59;5092382;28;19912;-67
2023/09/06 10:47:28;;;;;;;;;;;;;;;31.36;19.62;102080.31;5092577;28;19951;-67
2023/09/06 10:50:26;;;;;;;;;;;;;;;31.52;19.86;102080.97;5092435;28;19912;-67
2023/09/06 10:52:53;;;;;;;;;;;;;;;31.71;19.83;102078.25;5058217;28;19912;-67
2023/09/06 10:55:26;;;;;;;;;;;;;;;31.86;19.70;102082.78;5097499;28;20308;-67
2023/09/06 10:57:54;;;;;;;;;;;;;;;31.93;19.22;102077.69;5112957;28;19994;-67
2023/09/06 11:00:21;;;;;;;;;;;;;;;32.03;19.46;102081.13;5112596;28;20405;-67
2023/09/06 11:03:05;;;;;;;;;;;;;;;31.98;19.77;102081.22;5098874;28;20356;-67
2023/09/06 11:05:32;;;;;;;;;;;;;;;31.97;19.64;102087.06;5072149;28;20385;-67
2023/09/06 11:07:57;;;;;;;;;;;;;;;31.56;18.84;102085.66;5072160;28;19916;-67
2023/09/06 11:10:22;;;;;;;;;;;;;;;31.67;19.46;102080.78;5072229;28;20401;-67
2023/09/06 11:12:48;;;;;;;;;;;;;;;31.97;19.72;102085.09;5072164;28;19966;-67
2023/09/06 11:15:13;;;;;;;;;;;;;;;32.20;19.65;102085.34;5066230;28;19934;-67
2023/09/06 11:17:38;;;;;;;;;;;;;;;32.42;19.85;102081.94;5075789;28;20022;-67
2023/09/06 11:20:14;;;;;;;;;;;;;;;32.57;19.36;102081.72;5075997;28;19952;-67
2023/09/06 11:22:52;;;;;;;;;;;;;;;32.37;19.25;102074.53;5075997;28;19919;-67
2023/09/06 11:25:22;;;;;;;;;;;;;;;32.28;19.12;102081.06;5075594;28;19912;-67
2023/09/06 11:27:48;;;;;;;;;;;;;;;32.27;19.38;102085.81;5075653;28;19917;-67
2023/09/06 11:30:18;;;;;;;;;;;;;;;32.30;19.08;102090.78;5086101;28;20031;-67
2023/09/06 11:32:46;;;;;;;;;;;;;;;32.26;19.00;102089.69;5095834;28;19955;-67
2023/09/06 11:35:13;;;;;;;;;;;;;;;32.19;18.84;102084.53;5095969;28;19934;-67
2023/09/06 11:37:42;;;;;;;;;;;;;;;32.16;19.18;102087.91;5095666;28;19912;-67
2023/09/06 11:40:15;;;;;;;;;;;;;;;32.11;18.96;102087.97;5095886;28;19916;-67
2023/09/06 11:42:45;;;;;;;;;;;;;;;32.19;19.03;102084.53;5095601;28;19919;-67
2023/09/06 11:45:17;;;;;;;;;;;;;;;32.24;19.12;102086.41;5094318;28;19912;-67
2023/09/06 11:47:45;;;;;;;;;;;;;;;32.32;19.61;102082.13;5095496;28;19963;-67
2023/09/06 11:50:14;;;;;;;;;;;;;;;32.50;19.13;102077.66;5095402;28;19912;-67
2023/09/06 11:52:41;;;;;;;;;;;;;;;32.66;18.93;102073.50;5095060;28;19912;-67
2023/09/06 11:55:09;;;;;;;;;;;;;;;32.79;18.71;102072.72;5098299;28;19923;-67
2023/09/06 11:57:38;;;;;;;;;;;;;;;33.09;18.45;102069.66;5115702;28;19974;-67
2023/09/06 12:00:19;;;;;;;;;;;;;;;33.42;18.96;102058.47;5100130;28;19912;-67
2023/09/06 12:02:47;;;;;;;;;;;;;;;33.68;18.53;102069.94;5094810;28;19916;-66
2023/09/06 12:05:15;;;;;;;;;;;;;;;33.82;18.79;102055.94;5094826;28;20334;-67
2023/09/06 12:07:43;;;;;;;;;;;;;;;33.96;18.02;102055.94;5081671;28;20017;-66
2023/09/06 12:10:08;;;;;;;;;;;;;;;34.06;17.58;102058.47;5074840;28;19913;-67
2023/09/06 12:12:40;;;;;;;;;;;;;;;34.28;17.78;102050.13;5092547;28;20000;-66
2023/09/06 12:15:22;;;;;;;;;;;;;;;34.49;18.60;102049.63;5094340;28;20363;-66
2023/09/06 12:17:48;;;;;;;;;;;;;;;34.65;17.67;102045.28;5095565;28;20285;-66
2023/09/06 12:20:20;;;;;;;;;;;;;;;34.91;18.61;102044.63;5095367;28;20006;-66
2023/09/06 12:22:46;;;;;;;;;;;;;;;35.03;17.70;102044.00;5094661;28;19916;-67
2023/09/06 12:25:12;;;;;;;;;;;;;;;35.05;17.21;102042.56;5094306;28;19912;-67
2023/09/06 12:27:37;;;;;;;;;;;;;;;35.09;17.80;102042.75;5093577;28;20337;-67
2023/09/06 12:30:03;;;;;;;;;;;;;;;35.12;17.49;102030.91;5094427;28;19912;-66
2023/09/06 12:32:31;;;;;;;;;;;;;;;35.20;17.33;102027.38;5094866;28;20420;-67
2023/09/06 12:34:56;;;;;;;;;;;;;;;35.18;17.42;102021.28;5094490;28;20141;-67